sensor_id;sensor_type;location;lat;lon;timestamp;P1;durP1;ratioP1;P2;durP2;ratioP2
67092;SDS011;54011;50.772;7.730;2023-04-01T00:00:52;2.70;;;0.85;;
67092;SDS011;54011;50.772;7.730;2023-04-01T00:03:19;4.43;;;1.00;;
67092;SDS011;54011;50.772;7.730;2023-04-01T00:05:45;5.47;;;1.13;;
67092;SDS011;54011;50.772;7.730;2023-04-01T00:08:12;3.78;;;0.85;;
67092;SDS011;54011;50.772;7.730;2023-04-01T00:10:37;4.75;;;1.10;;
67092;SDS011;54011;50.772;7.730;2023-04-01T00:13:03;3.88;;;0.80;;
67092;SDS011;54011;50.772;7.730;2023-04-01T00:15:29;2.58;;;0.80;;
67092;SDS011;54011;50.772;7.730;2023-04-01T00:17:55;4.97;;;0.90;;
67092;SDS011;54011;50.772;7.730;2023-04-01T00:20:21;5.40;;;0.95;;
67092;SDS011;54011;50.772;7.730;2023-04-01T00:22:46;4.43;;;1.23;;
67092;SDS011;54011;50.772;7.730;2023-04-01T00:25:12;8.43;;;1.58;;
67092;SDS011;54011;50.772;7.730;2023-04-01T00:27:38;5.32;;;0.82;;
67092;SDS011;54011;50.772;7.730;2023-04-01T00:30:05;5.85;;;0.98;;
67092;SDS011;54011;50.772;7.730;2023-04-01T00:32:31;8.82;;;1.80;;
67092;SDS011;54011;50.772;7.730;2023-04-01T00:34:57;5.15;;;1.00;;
67092;SDS011;54011;50.772;7.730;2023-04-01T00:37:25;4.13;;;0.68;;
67092;SDS011;54011;50.772;7.730;2023-04-01T00:39:51;4.18;;;0.95;;
67092;SDS011;54011;50.772;7.730;2023-04-01T00:42:17;4.72;;;0.93;;
67092;SDS011;54011;50.772;7.730;2023-04-01T00:44:44;3.88;;;0.85;;
67092;SDS011;54011;50.772;7.730;2023-04-01T00:47:13;2.80;;;0.88;;
67092;SDS011;54011;50.772;7.730;2023-04-01T00:49:40;3.97;;;1.00;;
67092;SDS011;54011;50.772;7.730;2023-04-01T00:52:11;2.55;;;0.80;;
67092;SDS011;54011;50.772;7.730;2023-04-01T00:54:39;6.00;;;1.10;;
67092;SDS011;54011;50.772;7.730;2023-04-01T00:57:09;8.40;;;0.93;;
67092;SDS011;54011;50.772;7.730;2023-04-01T00:59:39;2.42;;;0.80;;
67092;SDS011;54011;50.772;7.730;2023-04-01T01:02:08;5.20;;;0.93;;
67092;SDS011;54011;50.772;7.730;2023-04-01T01:04:36;3.95;;;0.95;;
67092;SDS011;54011;50.772;7.730;2023-04-01T01:12:16;5.05;;;0.93;;
67092;SDS011;54011;50.772;7.730;2023-04-01T01:14:51;4.82;;;1.55;;
67092;SDS011;54011;50.772;7.730;2023-04-01T01:31:45;4.70;;;1.17;;
67092;SDS011;54011;50.772;7.730;2023-04-01T01:34:22;1.92;;;0.80;;
67092;SDS011;54011;50.772;7.730;2023-04-01T01:37:11;5.53;;;0.80;;
67092;SDS011;54011;50.772;7.730;2023-04-01T01:39:40;2.47;;;0.80;;
67092;SDS011;54011;50.772;7.730;2023-04-01T01:42:09;1.65;;;0.65;;
67092;SDS011;54011;50.772;7.730;2023-04-01T01:44:38;5.82;;;0.88;;
67092;SDS011;54011;50.772;7.730;2023-04-01T01:47:05;4.28;;;0.88;;
67092;SDS011;54011;50.772;7.730;2023-04-01T01:49:32;5.30;;;0.85;;
67092;SDS011;54011;50.772;7.730;2023-04-01T01:51:59;1.48;;;0.57;;
67092;SDS011;54011;50.772;7.730;2023-04-01T01:54:25;3.78;;;0.80;;
67092;SDS011;54011;50.772;7.730;2023-04-01T01:56:52;5.38;;;1.15;;
67092;SDS011;54011;50.772;7.730;2023-04-01T01:59:25;3.38;;;0.90;;
67092;SDS011;54011;50.772;7.730;2023-04-01T02:01:53;3.78;;;0.70;;
67092;SDS011;54011;50.772;7.730;2023-04-01T02:04:21;0.98;;;0.50;;
67092;SDS011;54011;50.772;7.730;2023-04-01T02:06:56;4.05;;;0.90;;
67092;SDS011;54011;50.772;7.730;2023-04-01T02:09:26;3.42;;;0.85;;
67092;SDS011;54011;50.772;7.730;2023-04-01T02:11:53;7.75;;;1.17;;
67092;SDS011;54011;50.772;7.730;2023-04-01T02:14:23;3.33;;;0.70;;
67092;SDS011;54011;50.772;7.730;2023-04-01T02:19:41;4.20;;;0.82;;
67092;SDS011;54011;50.772;7.730;2023-04-01T02:22:13;3.15;;;0.60;;
67092;SDS011;54011;50.772;7.730;2023-04-01T02:24:43;3.13;;;0.60;;
67092;SDS011;54011;50.772;7.730;2023-04-01T02:27:10;1.17;;;0.60;;
67092;SDS011;54011;50.772;7.730;2023-04-01T02:29:36;1.20;;;0.50;;
67092;SDS011;54011;50.772;7.730;2023-04-01T02:32:05;2.97;;;0.65;;
67092;SDS011;54011;50.772;7.730;2023-04-01T02:34:32;1.17;;;0.50;;
67092;SDS011;54011;50.772;7.730;2023-04-01T02:36:58;3.08;;;0.70;;
67092;SDS011;54011;50.772;7.730;2023-04-01T02:39:24;5.40;;;0.80;;
67092;SDS011;54011;50.772;7.730;2023-04-01T02:41:51;3.00;;;0.98;;
67092;SDS011;54011;50.772;7.730;2023-04-01T02:44:17;5.75;;;1.02;;
67092;SDS011;54011;50.772;7.730;2023-04-01T02:46:43;2.47;;;0.60;;
67092;SDS011;54011;50.772;7.730;2023-04-01T02:49:08;4.30;;;0.90;;
67092;SDS011;54011;50.772;7.730;2023-04-01T02:51:34;2.35;;;0.60;;
67092;SDS011;54011;50.772;7.730;2023-04-01T02:54:00;3.25;;;0.95;;
67092;SDS011;54011;50.772;7.730;2023-04-01T02:56:26;2.08;;;0.90;;
67092;SDS011;54011;50.772;7.730;2023-04-01T02:58:52;5.43;;;1.20;;
67092;SDS011;54011;50.772;7.730;2023-04-01T03:01:19;3.65;;;0.77;;
67092;SDS011;54011;50.772;7.730;2023-04-01T03:03:45;4.93;;;0.90;;
67092;SDS011;54011;50.772;7.730;2023-04-01T03:06:11;5.72;;;0.90;;
67092;SDS011;54011;50.772;7.730;2023-04-01T03:08:38;5.07;;;0.80;;
67092;SDS011;54011;50.772;7.730;2023-04-01T03:11:04;3.97;;;0.80;;
67092;SDS011;54011;50.772;7.730;2023-04-01T03:13:33;1.70;;;0.60;;
67092;SDS011;54011;50.772;7.730;2023-04-01T03:15:58;5.82;;;1.08;;
67092;SDS011;54011;50.772;7.730;2023-04-01T03:18:24;3.38;;;0.98;;
67092;SDS011;54011;50.772;7.730;2023-04-01T03:20:50;2.25;;;0.60;;
67092;SDS011;54011;50.772;7.730;2023-04-01T03:23:16;5.75;;;0.73;;
67092;SDS011;54011;50.772;7.730;2023-04-01T03:25:49;6.63;;;1.65;;
67092;SDS011;54011;50.772;7.730;2023-04-01T03:28:15;3.83;;;0.70;;
67092;SDS011;54011;50.772;7.730;2023-04-01T03:30:41;4.20;;;0.80;;
67092;SDS011;54011;50.772;7.730;2023-04-01T03:33:08;1.85;;;0.60;;
67092;SDS011;54011;50.772;7.730;2023-04-01T03:35:33;2.42;;;0.60;;
67092;SDS011;54011;50.772;7.730;2023-04-01T03:38:01;5.97;;;0.85;;
67092;SDS011;54011;50.772;7.730;2023-04-01T03:40:27;1.55;;;0.70;;
67092;SDS011;54011;50.772;7.730;2023-04-01T03:42:53;1.95;;;0.70;;
67092;SDS011;54011;50.772;7.730;2023-04-01T03:45:18;4.68;;;0.90;;
67092;SDS011;54011;50.772;7.730;2023-04-01T03:47:44;6.15;;;0.70;;
67092;SDS011;54011;50.772;7.730;2023-04-01T03:50:09;7.07;;;1.05;;
67092;SDS011;54011;50.772;7.730;2023-04-01T03:52:35;5.18;;;0.80;;
67092;SDS011;54011;50.772;7.730;2023-04-01T03:55:01;4.00;;;0.85;;
67092;SDS011;54011;50.772;7.730;2023-04-01T03:57:27;3.92;;;0.70;;
67092;SDS011;54011;50.772;7.730;2023-04-01T03:59:57;1.55;;;0.65;;
67092;SDS011;54011;50.772;7.730;2023-04-01T04:02:23;1.67;;;0.50;;
67092;SDS011;54011;50.772;7.730;2023-04-01T04:04:48;2.83;;;0.88;;
67092;SDS011;54011;50.772;7.730;2023-04-01T04:07:14;3.40;;;0.90;;
67092;SDS011;54011;50.772;7.730;2023-04-01T04:09:58;5.88;;;0.98;;
67092;SDS011;54011;50.772;7.730;2023-04-01T04:12:23;3.20;;;0.57;;
67092;SDS011;54011;50.772;7.730;2023-04-01T04:14:49;3.97;;;0.80;;
67092;SDS011;54011;50.772;7.730;2023-04-01T04:17:14;5.03;;;0.82;;
67092;SDS011;54011;50.772;7.730;2023-04-01T04:19:42;4.47;;;0.70;;
67092;SDS011;54011;50.772;7.730;2023-04-01T04:22:08;2.50;;;0.90;;
67092;SDS011;54011;50.772;7.730;2023-04-01T04:24:34;1.63;;;0.60;;
67092;SDS011;54011;50.772;7.730;2023-04-01T04:27:08;2.47;;;0.63;;
67092;SDS011;54011;50.772;7.730;2023-04-01T04:29:40;4.85;;;0.73;;
67092;SDS011;54011;50.772;7.730;2023-04-01T04:32:06;1.58;;;0.50;;
67092;SDS011;54011;50.772;7.730;2023-04-01T04:34:32;3.83;;;0.80;;
67092;SDS011;54011;50.772;7.730;2023-04-01T04:36:58;5.53;;;0.98;;
67092;SDS011;54011;50.772;7.730;2023-04-01T04:39:29;4.55;;;0.60;;
67092;SDS011;54011;50.772;7.730;2023-04-01T04:41:55;1.52;;;0.60;;
67092;SDS011;54011;50.772;7.730;2023-04-01T04:44:20;3.22;;;0.63;;
67092;SDS011;54011;50.772;7.730;2023-04-01T04:46:46;1.95;;;0.65;;
67092;SDS011;54011;50.772;7.730;2023-04-01T04:49:13;3.10;;;0.70;;
67092;SDS011;54011;50.772;7.730;2023-04-01T04:51:39;1.98;;;0.60;;
67092;SDS011;54011;50.772;7.730;2023-04-01T04:54:05;1.77;;;0.70;;
67092;SDS011;54011;50.772;7.730;2023-04-01T04:56:44;1.75;;;0.50;;
67092;SDS011;54011;50.772;7.730;2023-04-01T04:59:10;2.63;;;0.63;;
67092;SDS011;54011;50.772;7.730;2023-04-01T05:01:44;1.30;;;0.57;;
67092;SDS011;54011;50.772;7.730;2023-04-01T05:04:10;3.20;;;0.60;;
67092;SDS011;54011;50.772;7.730;2023-04-01T05:06:39;2.25;;;0.70;;
67092;SDS011;54011;50.772;7.730;2023-04-01T05:09:05;5.47;;;0.77;;
67092;SDS011;54011;50.772;7.730;2023-04-01T05:11:31;0.60;;;0.40;;
67092;SDS011;54011;50.772;7.730;2023-04-01T05:13:57;1.15;;;0.63;;
67092;SDS011;54011;50.772;7.730;2023-04-01T05:16:22;3.08;;;1.02;;
67092;SDS011;54011;50.772;7.730;2023-04-01T05:18:48;2.42;;;0.77;;
67092;SDS011;54011;50.772;7.730;2023-04-01T05:21:14;2.60;;;0.60;;
67092;SDS011;54011;50.772;7.730;2023-04-01T05:23:41;2.58;;;0.60;;
67092;SDS011;54011;50.772;7.730;2023-04-01T05:26:09;1.05;;;0.50;;
67092;SDS011;54011;50.772;7.730;2023-04-01T05:28:39;2.28;;;0.68;;
67092;SDS011;54011;50.772;7.730;2023-04-01T05:31:08;0.93;;;0.57;;
67092;SDS011;54011;50.772;7.730;2023-04-01T05:33:37;2.17;;;0.60;;
67092;SDS011;54011;50.772;7.730;2023-04-01T05:36:11;3.28;;;0.70;;
67092;SDS011;54011;50.772;7.730;2023-04-01T05:38:39;3.65;;;0.60;;
67092;SDS011;54011;50.772;7.730;2023-04-01T05:41:08;1.23;;;0.55;;
67092;SDS011;54011;50.772;7.730;2023-04-01T05:43:37;1.98;;;0.57;;
67092;SDS011;54011;50.772;7.730;2023-04-01T05:46:24;4.43;;;0.75;;
67092;SDS011;54011;50.772;7.730;2023-04-01T05:48:56;2.83;;;0.50;;
67092;SDS011;54011;50.772;7.730;2023-04-01T05:51:23;2.88;;;0.57;;
67092;SDS011;54011;50.772;7.730;2023-04-01T05:53:49;1.08;;;0.50;;
67092;SDS011;54011;50.772;7.730;2023-04-01T05:56:17;0.85;;;0.30;;
67092;SDS011;54011;50.772;7.730;2023-04-01T05:58:50;0.40;;;0.32;;
67092;SDS011;54011;50.772;7.730;2023-04-01T06:01:19;0.75;;;0.40;;
67092;SDS011;54011;50.772;7.730;2023-04-01T06:03:45;3.33;;;0.85;;
67092;SDS011;54011;50.772;7.730;2023-04-01T06:06:13;2.97;;;0.77;;
67092;SDS011;54011;50.772;7.730;2023-04-01T06:08:56;1.30;;;0.50;;
67092;SDS011;54011;50.772;7.730;2023-04-01T06:17:35;1.05;;;0.57;;
67092;SDS011;54011;50.772;7.730;2023-04-01T06:19:55;3.58;;;0.70;;
67092;SDS011;54011;50.772;7.730;2023-04-01T06:34:15;3.08;;;0.73;;
67092;SDS011;54011;50.772;7.730;2023-04-01T06:37:10;0.88;;;0.50;;
67092;SDS011;54011;50.772;7.730;2023-04-01T06:45:01;6.03;;;0.55;;
67092;SDS011;54011;50.772;7.730;2023-04-01T06:48:17;0.75;;;0.50;;
67092;SDS011;54011;50.772;7.730;2023-04-01T06:51:39;1.92;;;0.60;;
67092;SDS011;54011;50.772;7.730;2023-04-01T06:54:42;4.10;;;0.60;;
67092;SDS011;54011;50.772;7.730;2023-04-01T06:57:34;1.63;;;0.60;;
67092;SDS011;54011;50.772;7.730;2023-04-01T07:00:05;1.17;;;0.50;;
67092;SDS011;54011;50.772;7.730;2023-04-01T07:02:41;3.33;;;0.73;;
67092;SDS011;54011;50.772;7.730;2023-04-01T07:05:13;1.60;;;0.60;;
67092;SDS011;54011;50.772;7.730;2023-04-01T07:07:53;3.03;;;0.65;;
67092;SDS011;54011;50.772;7.730;2023-04-01T07:10:25;0.85;;;0.45;;
67092;SDS011;54011;50.772;7.730;2023-04-01T07:16:30;1.98;;;0.57;;
67092;SDS011;54011;50.772;7.730;2023-04-01T07:21:52;0.63;;;0.50;;
67092;SDS011;54011;50.772;7.730;2023-04-01T07:24:41;1.85;;;0.60;;
67092;SDS011;54011;50.772;7.730;2023-04-01T07:27:11;0.95;;;0.50;;
67092;SDS011;54011;50.772;7.730;2023-04-01T07:29:39;2.00;;;0.60;;
67092;SDS011;54011;50.772;7.730;2023-04-01T07:32:23;1.30;;;0.60;;
67092;SDS011;54011;50.772;7.730;2023-04-01T07:45:36;4.30;;;0.63;;
67092;SDS011;54011;50.772;7.730;2023-04-01T07:51:00;1.52;;;0.52;;
67092;SDS011;54011;50.772;7.730;2023-04-01T07:53:39;0.35;;;0.32;;
67092;SDS011;54011;50.772;7.730;2023-04-01T07:56:43;1.70;;;0.68;;
67092;SDS011;54011;50.772;7.730;2023-04-01T07:59:08;1.60;;;0.65;;
67092;SDS011;54011;50.772;7.730;2023-04-01T08:05:04;3.05;;;0.52;;
67092;SDS011;54011;50.772;7.730;2023-04-01T08:10:40;1.60;;;0.65;;
67092;SDS011;54011;50.772;7.730;2023-04-01T08:19:27;0.95;;;0.50;;
67092;SDS011;54011;50.772;7.730;2023-04-01T08:22:18;1.77;;;0.70;;
67092;SDS011;54011;50.772;7.730;2023-04-01T08:24:52;1.50;;;0.65;;
67092;SDS011;54011;50.772;7.730;2023-04-01T08:27:24;2.60;;;0.77;;
67092;SDS011;54011;50.772;7.730;2023-04-01T08:32:51;2.20;;;0.60;;
67092;SDS011;54011;50.772;7.730;2023-04-01T08:35:26;0.93;;;0.57;;
67092;SDS011;54011;50.772;7.730;2023-04-01T08:38:13;2.17;;;0.60;;
67092;SDS011;54011;50.772;7.730;2023-04-01T08:50:12;1.92;;;0.73;;
67092;SDS011;54011;50.772;7.730;2023-04-01T08:56:28;1.02;;;0.70;;
67092;SDS011;54011;50.772;7.730;2023-04-01T09:07:45;2.20;;;0.70;;
67092;SDS011;54011;50.772;7.730;2023-04-01T09:14:15;2.60;;;0.80;;
67092;SDS011;54011;50.772;7.730;2023-04-01T09:25:53;2.42;;;0.70;;
67092;SDS011;54011;50.772;7.730;2023-04-01T09:45:47;1.10;;;0.60;;
67092;SDS011;54011;50.772;7.730;2023-04-01T09:54:52;1.25;;;0.68;;
67092;SDS011;54011;50.772;7.730;2023-04-01T10:24:15;0.90;;;0.60;;
67092;SDS011;54011;50.772;7.730;2023-04-01T10:41:33;1.10;;;0.60;;
67092;SDS011;54011;50.772;7.730;2023-04-01T10:44:56;15.45;;;1.50;;
67092;SDS011;54011;50.772;7.730;2023-04-01T10:51:25;1.63;;;0.90;;
67092;SDS011;54011;50.772;7.730;2023-04-01T10:54:43;1.30;;;0.70;;
67092;SDS011;54011;50.772;7.730;2023-04-01T11:21:29;2.80;;;1.13;;
67092;SDS011;54011;50.772;7.730;2023-04-01T11:33:14;2.92;;;1.20;;
67092;SDS011;54011;50.772;7.730;2023-04-01T11:47:51;3.15;;;1.33;;
67092;SDS011;54011;50.772;7.730;2023-04-01T12:07:15;1.33;;;0.75;;
67092;SDS011;54011;50.772;7.730;2023-04-01T12:09:49;2.15;;;1.02;;
67092;SDS011;54011;50.772;7.730;2023-04-01T12:15:12;15.45;;;1.27;;
67092;SDS011;54011;50.772;7.730;2023-04-01T12:17:46;2.38;;;1.20;;
67092;SDS011;54011;50.772;7.730;2023-04-01T12:26:10;2.30;;;0.98;;
67092;SDS011;54011;50.772;7.730;2023-04-01T12:29:14;1.92;;;0.93;;
67092;SDS011;54011;50.772;7.730;2023-04-01T12:42:34;1.23;;;0.60;;
67092;SDS011;54011;50.772;7.730;2023-04-01T12:45:27;2.15;;;1.10;;
67092;SDS011;54011;50.772;7.730;2023-04-01T12:53:23;2.40;;;1.10;;
67092;SDS011;54011;50.772;7.730;2023-04-01T12:56:01;2.42;;;0.95;;
67092;SDS011;54011;50.772;7.730;2023-04-01T13:02:10;4.57;;;1.80;;
67092;SDS011;54011;50.772;7.730;2023-04-01T13:15:19;2.08;;;1.05;;
67092;SDS011;54011;50.772;7.730;2023-04-01T13:28:23;1.55;;;0.77;;
67092;SDS011;54011;50.772;7.730;2023-04-01T13:36:40;2.88;;;1.33;;
67092;SDS011;54011;50.772;7.730;2023-04-01T13:39:25;1.70;;;0.70;;
67092;SDS011;54011;50.772;7.730;2023-04-01T13:42:21;2.05;;;0.98;;
67092;SDS011;54011;50.772;7.730;2023-04-01T13:44:54;2.00;;;0.90;;
67092;SDS011;54011;50.772;7.730;2023-04-01T13:53:22;2.53;;;1.00;;
67092;SDS011;54011;50.772;7.730;2023-04-01T13:59:05;1.88;;;0.88;;
67092;SDS011;54011;50.772;7.730;2023-04-01T14:01:59;2.15;;;0.90;;
67092;SDS011;54011;50.772;7.730;2023-04-01T14:08:07;1.58;;;0.80;;
67092;SDS011;54011;50.772;7.730;2023-04-01T14:11:00;1.08;;;0.60;;
67092;SDS011;54011;50.772;7.730;2023-04-01T14:50:17;3.23;;;1.50;;
67092;SDS011;54011;50.772;7.730;2023-04-01T14:58:13;5.75;;;1.52;;
67092;SDS011;54011;50.772;7.730;2023-04-01T15:04:15;1.75;;;0.90;;
67092;SDS011;54011;50.772;7.730;2023-04-01T15:06:42;2.70;;;1.27;;
67092;SDS011;54011;50.772;7.730;2023-04-01T15:20:47;4.68;;;1.10;;
67092;SDS011;54011;50.772;7.730;2023-04-01T15:23:28;3.35;;;1.48;;
67092;SDS011;54011;50.772;7.730;2023-04-01T15:34:24;3.60;;;1.98;;
67092;SDS011;54011;50.772;7.730;2023-04-01T15:37:12;2.25;;;1.17;;
67092;SDS011;54011;50.772;7.730;2023-04-01T15:45:34;2.28;;;1.30;;
67092;SDS011;54011;50.772;7.730;2023-04-01T15:49:22;3.05;;;1.40;;
67092;SDS011;54011;50.772;7.730;2023-04-01T15:52:23;2.47;;;0.95;;
67092;SDS011;54011;50.772;7.730;2023-04-01T16:00:10;2.90;;;1.40;;
67092;SDS011;54011;50.772;7.730;2023-04-01T16:05:42;2.50;;;1.17;;
67092;SDS011;54011;50.772;7.730;2023-04-01T16:27:50;3.72;;;2.00;;
67092;SDS011;54011;50.772;7.730;2023-04-01T16:30:26;2.53;;;1.40;;
67092;SDS011;54011;50.772;7.730;2023-04-01T16:33:01;3.88;;;2.08;;
67092;SDS011;54011;50.772;7.730;2023-04-01T16:35:58;4.28;;;2.33;;
67092;SDS011;54011;50.772;7.730;2023-04-01T16:38:46;4.32;;;2.20;;
67092;SDS011;54011;50.772;7.730;2023-04-01T16:41:40;5.30;;;2.47;;
67092;SDS011;54011;50.772;7.730;2023-04-01T16:46:43;3.00;;;1.45;;
67092;SDS011;54011;50.772;7.730;2023-04-01T16:54:40;5.20;;;2.60;;
67092;SDS011;54011;50.772;7.730;2023-04-01T16:57:14;3.58;;;1.88;;
67092;SDS011;54011;50.772;7.730;2023-04-01T16:59:48;4.05;;;2.00;;
67092;SDS011;54011;50.772;7.730;2023-04-01T17:02:28;2.55;;;1.42;;
67092;SDS011;54011;50.772;7.730;2023-04-01T17:05:01;6.55;;;2.35;;
67092;SDS011;54011;50.772;7.730;2023-04-01T17:07:53;3.17;;;1.70;;
67092;SDS011;54011;50.772;7.730;2023-04-01T17:10:50;4.55;;;2.40;;
67092;SDS011;54011;50.772;7.730;2023-04-01T17:27:20;3.03;;;1.45;;
67092;SDS011;54011;50.772;7.730;2023-04-01T17:30:17;4.20;;;1.63;;
67092;SDS011;54011;50.772;7.730;2023-04-01T17:33:53;4.65;;;2.63;;
67092;SDS011;54011;50.772;7.730;2023-04-01T17:36:36;3.80;;;2.00;;
67092;SDS011;54011;50.772;7.730;2023-04-01T17:42:22;7.88;;;3.22;;
67092;SDS011;54011;50.772;7.730;2023-04-01T17:58:21;7.03;;;3.50;;
67092;SDS011;54011;50.772;7.730;2023-04-01T18:01:07;4.75;;;2.60;;
67092;SDS011;54011;50.772;7.730;2023-04-01T18:11:53;4.45;;;2.47;;
67092;SDS011;54011;50.772;7.730;2023-04-01T18:22:26;5.50;;;2.95;;
67092;SDS011;54011;50.772;7.730;2023-04-01T18:28:14;3.72;;;2.03;;
67092;SDS011;54011;50.772;7.730;2023-04-01T18:30:53;4.57;;;2.67;;
67092;SDS011;54011;50.772;7.730;2023-04-01T18:33:36;4.32;;;2.58;;
67092;SDS011;54011;50.772;7.730;2023-04-01T18:39:12;4.03;;;2.65;;
67092;SDS011;54011;50.772;7.730;2023-04-01T18:42:03;6.25;;;3.50;;
67092;SDS011;54011;50.772;7.730;2023-04-01T18:44:45;5.53;;;3.17;;
67092;SDS011;54011;50.772;7.730;2023-04-01T18:48:22;4.65;;;2.60;;
67092;SDS011;54011;50.772;7.730;2023-04-01T18:50:41;4.18;;;2.45;;
67092;SDS011;54011;50.772;7.730;2023-04-01T18:53:19;3.92;;;2.22;;
67092;SDS011;54011;50.772;7.730;2023-04-01T18:56:05;4.57;;;2.80;;
67092;SDS011;54011;50.772;7.730;2023-04-01T18:58:45;4.93;;;3.03;;
67092;SDS011;54011;50.772;7.730;2023-04-01T19:01:25;4.55;;;2.75;;
67092;SDS011;54011;50.772;7.730;2023-04-01T19:04:01;5.13;;;2.28;;
67092;SDS011;54011;50.772;7.730;2023-04-01T19:06:40;6.68;;;3.22;;
67092;SDS011;54011;50.772;7.730;2023-04-01T19:28:40;5.70;;;3.53;;
67092;SDS011;54011;50.772;7.730;2023-04-01T19:36:48;4.82;;;3.08;;
67092;SDS011;54011;50.772;7.730;2023-04-01T19:42:09;4.80;;;2.67;;
67092;SDS011;54011;50.772;7.730;2023-04-01T19:45:17;5.07;;;3.22;;
67092;SDS011;54011;50.772;7.730;2023-04-01T19:50:53;6.00;;;3.53;;
67092;SDS011;54011;50.772;7.730;2023-04-01T19:56:19;4.13;;;2.28;;
67092;SDS011;54011;50.772;7.730;2023-04-01T19:58:54;4.85;;;3.10;;
67092;SDS011;54011;50.772;7.730;2023-04-01T20:06:58;5.35;;;2.88;;
67092;SDS011;54011;50.772;7.730;2023-04-01T20:14:40;5.30;;;3.40;;
67092;SDS011;54011;50.772;7.730;2023-04-01T20:25:16;3.67;;;2.38;;
67092;SDS011;54011;50.772;7.730;2023-04-01T20:27:56;5.00;;;3.28;;
67092;SDS011;54011;50.772;7.730;2023-04-01T20:39:25;6.65;;;4.13;;
67092;SDS011;54011;50.772;7.730;2023-04-01T20:42:27;4.75;;;2.72;;
67092;SDS011;54011;50.772;7.730;2023-04-01T20:50:50;6.88;;;4.35;;
67092;SDS011;54011;50.772;7.730;2023-04-01T20:53:28;9.43;;;3.33;;
67092;SDS011;54011;50.772;7.730;2023-04-01T20:59:02;8.52;;;4.60;;
67092;SDS011;54011;50.772;7.730;2023-04-01T21:02:03;7.78;;;5.03;;
67092;SDS011;54011;50.772;7.730;2023-04-01T21:05:05;8.38;;;5.05;;
67092;SDS011;54011;50.772;7.730;2023-04-01T21:10:41;8.90;;;5.68;;
67092;SDS011;54011;50.772;7.730;2023-04-01T21:13:31;8.40;;;5.43;;
67092;SDS011;54011;50.772;7.730;2023-04-01T21:27:39;9.20;;;5.65;;
67092;SDS011;54011;50.772;7.730;2023-04-01T21:44:43;9.18;;;5.72;;
67092;SDS011;54011;50.772;7.730;2023-04-01T21:47:36;7.30;;;5.00;;
67092;SDS011;54011;50.772;7.730;2023-04-01T22:04:08;7.50;;;4.28;;
67092;SDS011;54011;50.772;7.730;2023-04-01T22:06:45;9.85;;;4.55;;
67092;SDS011;54011;50.772;7.730;2023-04-01T22:12:15;9.50;;;4.60;;
67092;SDS011;54011;50.772;7.730;2023-04-01T22:14:59;7.05;;;4.47;;
67092;SDS011;54011;50.772;7.730;2023-04-01T22:18:04;9.00;;;3.47;;
67092;SDS011;54011;50.772;7.730;2023-04-01T22:21:41;8.07;;;3.83;;
67092;SDS011;54011;50.772;7.730;2023-04-01T22:23:54;8.10;;;4.00;;
67092;SDS011;54011;50.772;7.730;2023-04-01T22:31:49;6.05;;;3.85;;
67092;SDS011;54011;50.772;7.730;2023-04-01T22:34:27;6.68;;;3.78;;
67092;SDS011;54011;50.772;7.730;2023-04-01T22:39:48;7.03;;;3.83;;
67092;SDS011;54011;50.772;7.730;2023-04-01T22:48:05;6.65;;;3.95;;
67092;SDS011;54011;50.772;7.730;2023-04-01T22:51:11;5.82;;;3.50;;
67092;SDS011;54011;50.772;7.730;2023-04-01T22:56:40;4.97;;;3.08;;
67092;SDS011;54011;50.772;7.730;2023-04-01T22:59:13;5.47;;;3.55;;
67092;SDS011;54011;50.772;7.730;2023-04-01T23:01:52;7.53;;;3.80;;
67092;SDS011;54011;50.772;7.730;2023-04-01T23:04:27;7.05;;;3.72;;
67092;SDS011;54011;50.772;7.730;2023-04-01T23:06:57;8.80;;;4.70;;
67092;SDS011;54011;50.772;7.730;2023-04-01T23:09:29;8.52;;;4.85;;
67092;SDS011;54011;50.772;7.730;2023-04-01T23:12:05;9.02;;;4.35;;
67092;SDS011;54011;50.772;7.730;2023-04-01T23:14:39;7.40;;;4.15;;
67092;SDS011;54011;50.772;7.730;2023-04-01T23:17:16;7.30;;;4.18;;
67092;SDS011;54011;50.772;7.730;2023-04-01T23:20:16;6.75;;;4.10;;
67092;SDS011;54011;50.772;7.730;2023-04-01T23:28:32;6.63;;;4.03;;
67092;SDS011;54011;50.772;7.730;2023-04-01T23:33:57;5.63;;;3.15;;
67092;SDS011;54011;50.772;7.730;2023-04-01T23:36:25;5.93;;;3.55;;
67092;SDS011;54011;50.772;7.730;2023-04-01T23:38:51;5.78;;;3.03;;
67092;SDS011;54011;50.772;7.730;2023-04-01T23:41:21;4.97;;;2.92;;
67092;SDS011;54011;50.772;7.730;2023-04-01T23:43:58;5.72;;;3.38;;
67092;SDS011;54011;50.772;7.730;2023-04-01T23:46:27;5.30;;;2.90;;
67092;SDS011;54011;50.772;7.730;2023-04-01T23:48:55;6.38;;;3.20;;
67092;SDS011;54011;50.772;7.730;2023-04-01T23:51:21;4.65;;;2.70;;
67092;SDS011;54011;50.772;7.730;2023-04-01T23:53:55;4.82;;;2.70;;
67092;SDS011;54011;50.772;7.730;2023-04-01T23:56:33;6.88;;;2.63;;
67092;SDS011;54011;50.772;7.730;2023-04-01T23:59:02;4.70;;;2.60;;
